Terminal Aerodrome Forecast
Issued by NWS Cleveland, OH

Home | Current Version | Previous Version | Graphics & Text | Print | Product List | Glossary On
Versions: 1 2 3 4 5 6 7 8 9 10 11 12 13 14
000
FTUS41 KCLE 262321
TAFMFD
TAF
KMFD 262321Z 2700/2724 27006KT P6SM OVC035
     FM270700 00000KT 4SM BR OVC035
     FM271100 00000KT 2SM BR OVC035
     FM271200 VRB03KT 4SM BR OVC035
     FM271400 35004KT P6SM BKN040
     FM272200 VRB03KT P6SM SCT250=

USA.gov is the U.S. government's official web portal to all federal, state and local government web resources and services.